Time;durP1;ratioP1;P1;durP2;ratioP2;P2;SDS_P1;SDS_P2;PMS_P1;PMS_P2;Temp;Humidity;BMP_temperature;BMP_pressure;BME280_temperature;BME280_humidity;BME280_pressure;Samples;Min_cycle;Max_cycle;Signal;HPM_P1;HPM_P2
2022/01/10 00:00:10;;;;;;;49.07;26.40;;;;;;;1.16;96.91;98959.70;1726644;81;21093;-74
2022/01/10 00:02:41;;;;;;;44.10;23.83;;;;;;;1.18;97.04;98959.51;1738491;80;21570;-72
2022/01/10 00:05:09;;;;;;;39.33;23.63;;;;;;;1.21;97.02;98961.22;1751710;80;21619;-87
2022/01/10 00:07:35;;;;;;;37.00;22.37;;;;;;;1.24;96.95;98951.55;1752529;81;21042;-87
2022/01/10 00:10:04;;;;;;;42.23;25.37;;;;;;;1.26;96.85;98952.65;1752474;81;20999;-80
2022/01/10 00:12:32;;;;;;;40.07;24.80;;;;;;;1.22;96.55;98962.85;1708580;81;21030;-80
2022/01/10 00:14:58;;;;;;;39.53;24.73;;;;;;;1.19;96.54;98961.14;1727408;81;21241;-84
2022/01/10 00:17:24;;;;;;;34.93;22.40;;;;;;;1.16;96.41;98955.73;1752594;81;20950;-84
2022/01/10 00:19:50;;;;;;;34.83;20.13;;;;;;;1.11;96.36;98974.58;1760522;80;21060;-74
2022/01/10 00:22:19;;;;;;;39.87;23.33;;;;;;;1.10;96.48;98975.62;1764319;80;21062;-75
2022/01/10 00:24:46;;;;;;;47.70;27.97;;;;;;;1.08;96.39;98967.06;1782051;80;21629;-75
2022/01/10 00:27:12;;;;;;;38.10;24.00;;;;;;;1.07;96.44;98964.92;1753944;80;21551;-74
2022/01/10 00:29:38;;;;;;;46.10;26.70;;;;;;;1.09;96.41;98967.37;1726284;80;21652;-73
2022/01/10 00:32:05;;;;;;;35.97;22.77;;;;;;;1.06;96.38;98969.09;1753215;80;20948;-71
2022/01/10 00:34:32;;;;;;;34.13;21.47;;;;;;;1.07;96.47;98974.19;1732182;80;20998;-71
2022/01/10 00:36:58;;;;;;;41.87;23.47;;;;;;;1.05;96.29;98982.86;1763694;80;21129;-78
2022/01/10 00:39:24;;;;;;;44.57;25.97;;;;;;;0.99;96.06;98979.70;1726499;81;21918;-75
2022/01/10 00:41:50;;;;;;;31.67;20.00;;;;;;;0.94;96.10;98990.09;1752758;81;21543;-75
2022/01/10 00:44:17;;;;;;;38.02;23.12;;;;;;;0.92;96.16;98979.39;1770433;80;21515;-77
2022/01/10 00:46:44;;;;;;;41.73;25.93;;;;;;;0.90;96.17;98996.00;1752083;81;21042;-74
2022/01/10 00:49:10;;;;;;;31.10;20.83;;;;;;;0.90;96.21;98989.39;1752448;81;21022;-75
2022/01/10 00:51:36;;;;;;;27.63;17.63;;;;;;;0.94;96.43;98986.63;1752251;81;21717;-79
2022/01/10 00:54:03;;;;;;;29.13;18.70;;;;;;;0.94;96.27;98985.31;1777668;80;21293;-72
2022/01/10 00:56:30;;;;;;;30.43;21.00;;;;;;;0.92;96.24;98984.69;1770380;80;21541;-74
2022/01/10 00:58:56;;;;;;;29.50;17.53;;;;;;;0.85;96.06;98988.17;1729410;81;21054;-73
2022/01/10 01:01:23;;;;;;;37.77;24.27;;;;;;;0.78;96.10;98989.99;1729680;81;21789;-78
2022/01/10 01:03:49;;;;;;;29.03;19.47;;;;;;;0.74;96.21;98998.55;1744534;80;21101;-82
2022/01/10 01:06:16;;;;;;;33.77;20.83;;;;;;;0.69;96.36;98984.60;1729419;81;20946;-79
2022/01/10 01:08:43;;;;;;;29.87;17.87;;;;;;;0.67;96.46;99004.36;1757474;81;21680;-79
2022/01/10 01:13:58;;;;;;;29.20;17.67;;;;;;;0.66;96.80;99003.55;1773318;80;21124;-75
2022/01/10 01:24:18;;;;;;;34.00;20.30;;;;;;;0.57;96.96;99003.95;1807557;79;21524;-79
2022/01/10 01:26:47;;;;;;;32.40;19.23;;;;;;;0.54;96.98;99001.69;1812259;79;21575;-77
2022/01/10 01:29:18;;;;;;;36.57;20.83;;;;;;;0.50;97.04;99005.25;1812276;79;21102;-83
2022/01/10 01:31:44;;;;;;;32.80;21.27;;;;;;;0.47;97.08;99006.98;1812498;79;21047;-73
2022/01/10 01:34:11;;;;;;;28.20;18.37;;;;;;;0.47;97.14;99003.52;1813558;77;21059;-87
2022/01/10 01:36:38;;;;;;;27.63;19.00;;;;;;;0.44;97.22;99002.90;1812849;78;21031;-87
2022/01/10 01:39:16;;;;;;;32.83;16.77;;;;;;;0.40;97.08;99006.97;1761585;79;20988;-83
2022/01/10 01:41:37;;;;;;;24.63;16.57;;;;;;;0.36;97.03;99003.60;1810953;79;22043;-80
2022/01/10 01:44:03;;;;;;;28.40;18.53;;;;;;;0.33;97.03;99003.52;1812594;77;20960;-76
2022/01/10 01:46:35;;;;;;;33.17;21.50;;;;;;;0.31;97.05;99011.33;1785851;79;21025;-78
2022/01/10 01:49:02;;;;;;;26.80;18.13;;;;;;;0.27;97.07;99012.23;1761236;78;21507;-80
2022/01/10 01:51:28;;;;;;;27.30;16.27;;;;;;;0.28;97.22;99011.23;1817043;78;21007;-75
2022/01/10 01:53:54;;;;;;;25.97;17.80;;;;;;;0.24;97.21;99017.91;1800609;79;21086;-76
2022/01/10 01:56:21;;;;;;;24.40;17.20;;;;;;;0.22;97.12;99017.81;1811695;79;21051;-71
2022/01/10 01:58:47;;;;;;;26.30;17.50;;;;;;;0.19;97.20;99021.66;1788874;79;20988;-81
2022/01/10 02:01:18;;;;;;;23.93;17.33;;;;;;;0.14;97.12;99024.62;1764734;79;20991;-80
2022/01/10 02:03:45;;;;;;;26.33;16.23;;;;;;;0.08;97.08;99018.29;1804462;77;21091;-79
2022/01/10 02:06:13;;;;;;;23.53;15.60;;;;;;;0.03;97.09;99023.36;1797522;78;21291;-74
2022/01/10 02:08:40;;;;;;;21.53;15.87;;;;;;;0.02;97.23;99026.19;1810094;78;20920;-76
2022/01/10 02:11:12;;;;;;;22.27;15.40;;;;;;;-0.01;97.26;99020.80;1811050;78;20937;-80
2022/01/10 02:13:39;;;;;;;22.30;15.63;;;;;;;0.01;97.38;99030.66;1817857;77;20991;-79
2022/01/10 02:16:10;;;;;;;26.03;16.77;;;;;;;0.00;97.54;99021.91;1760546;79;20944;-79
2022/01/10 02:18:38;;;;;;;23.33;15.80;;;;;;;0.00;97.52;99027.20;1810122;78;21161;-72
2022/01/10 02:21:05;;;;;;;25.10;17.60;;;;;;;-0.01;97.52;99037.98;1810021;78;20944;-81
2022/01/10 02:23:34;;;;;;;24.80;17.80;;;;;;;-0.04;97.50;99044.97;1799867;77;21089;-79
2022/01/10 02:26:03;;;;;;;20.93;15.30;;;;;;;-0.03;97.70;99047.42;1832673;77;20992;-78
2022/01/10 02:28:32;;;;;;;19.87;15.77;;;;;;;-0.04;97.60;99044.97;1788084;79;20996;-77
2022/01/10 02:30:58;;;;;;;20.83;15.03;;;;;;;-0.09;97.57;99055.31;1787576;79;21492;-76
2022/01/10 02:33:30;;;;;;;23.17;16.27;;;;;;;-0.17;97.57;99062.92;1797638;77;20969;-78
2022/01/10 02:36:20;;;;;;;24.63;15.90;;;;;;;-0.25;97.49;99056.48;1819557;77;20968;-75
2022/01/10 02:38:31;;;;;;;19.23;13.97;;;;;;;-0.30;97.73;99053.61;1787274;79;21011;-76
2022/01/10 02:40:58;;;;;;;18.93;13.97;;;;;;;-0.35;97.86;99053.89;1770715;80;21107;-91
2022/01/10 02:43:25;;;;;;;18.83;13.50;;;;;;;-0.39;98.06;99085.67;1772194;80;21176;-76
2022/01/10 02:45:51;;;;;;;19.47;13.53;;;;;;;-0.43;98.17;99068.05;1758917;80;20954;-83
2022/01/10 02:48:18;;;;;;;19.17;14.27;;;;;;;-0.45;98.30;99064.80;1788073;79;21592;-82
2022/01/10 02:50:44;;;;;;;21.37;14.77;;;;;;;-0.43;98.51;99068.05;1810716;79;21036;-80
2022/01/10 02:53:10;;;;;;;17.60;14.03;;;;;;;-0.42;98.55;99062.27;1806478;79;20979;-84
2022/01/10 02:55:38;;;;;;;19.07;13.13;;;;;;;-0.43;98.64;99070.69;1784229;79;21117;-82
2022/01/10 02:58:04;;;;;;;19.87;15.13;;;;;;;-0.43;98.77;99075.97;1777339;80;21578;-82
2022/01/10 03:00:31;;;;;;;22.00;14.07;;;;;;;-0.49;98.93;99079.41;1750145;80;21528;-82
2022/01/10 03:02:59;;;;;;;21.47;16.37;;;;;;;-0.48;99.12;99093.72;1778068;77;21004;-82
2022/01/10 03:05:25;;;;;;;20.70;15.60;;;;;;;-0.45;99.27;99084.61;1845687;77;21035;-86
2022/01/10 03:07:55;;;;;;;18.43;12.67;;;;;;;-0.45;99.19;99096.00;1819963;77;21050;-81
2022/01/10 03:10:22;;;;;;;22.80;14.17;;;;;;;-0.48;99.11;99088.44;1827191;77;20983;-74
2022/01/10 03:12:48;;;;;;;15.37;10.93;;;;;;;-0.48;99.18;99104.82;1811852;77;21023;-76
2022/01/10 03:15:17;;;;;;;20.27;12.87;;;;;;;-0.47;99.28;99101.14;1794652;79;21146;-75
2022/01/10 03:17:44;;;;;;;21.87;14.40;;;;;;;-0.45;99.38;99099.14;1810630;79;21573;-79
2022/01/10 03:20:11;;;;;;;18.00;14.47;;;;;;;-0.41;99.42;99106.16;1811078;79;21112;-73
2022/01/10 03:22:37;;;;;;;16.43;11.80;;;;;;;-0.39;99.44;99109.44;1785634;79;20985;-77
2022/01/10 03:25:06;;;;;;;20.43;14.83;;;;;;;-0.36;99.40;99116.97;1843456;77;21059;-75
2022/01/10 03:27:33;;;;;;;18.80;12.80;;;;;;;-0.37;99.31;99108.22;1845500;77;20967;-74
2022/01/10 03:30:00;;;;;;;19.40;14.10;;;;;;;-0.36;99.31;99115.64;1845532;77;21529;-72
2022/01/10 03:32:27;;;;;;;23.07;15.13;;;;;;;-0.40;99.16;99112.59;1832283;77;21908;-74
2022/01/10 03:34:57;;;;;;;16.90;12.40;;;;;;;-0.42;99.17;99117.23;1813392;77;21526;-75
2022/01/10 03:37:25;;;;;;;22.97;13.87;;;;;;;-0.44;99.29;99119.27;1805365;79;21040;-76
2022/01/10 03:39:52;;;;;;;24.63;15.20;;;;;;;-0.44;99.32;99121.91;1795525;79;21031;-71
2022/01/10 03:42:19;;;;;;;19.47;14.97;;;;;;;-0.43;99.37;99125.37;1831670;78;21053;-78
2022/01/10 03:44:48;;;;;;;21.03;14.30;;;;;;;-0.46;99.30;99139.77;1764802;80;21026;-75
2022/01/10 03:47:17;;;;;;;22.77;16.70;;;;;;;-0.49;99.27;99134.38;1802874;79;20965;-75
2022/01/10 03:49:43;;;;;;;21.87;14.13;;;;;;;-0.51;99.39;99130.28;1778108;79;21068;-76
2022/01/10 03:52:09;;;;;;;23.70;17.67;;;;;;;-0.47;99.57;99134.98;1797670;79;21592;-76
2022/01/10 03:54:35;;;;;;;16.67;12.33;;;;;;;-0.49;99.53;99126.45;1826441;77;21266;-77
2022/01/10 03:57:02;;;;;;;24.10;14.93;;;;;;;-0.45;99.71;99126.38;1816083;78;21017;-77
2022/01/10 03:59:28;;;;;;;21.83;14.50;;;;;;;-0.44;99.60;99135.11;1717715;82;21509;-75
2022/01/10 04:01:55;;;;;;;27.87;17.00;;;;;;;-0.46;99.60;99133.16;1732299;82;21018;-77
2022/01/10 04:04:22;;;;;;;21.53;15.30;;;;;;;-0.45;99.60;99137.44;1729351;82;21019;-81
2022/01/10 04:06:49;;;;;;;17.33;12.13;;;;;;;-0.46;99.63;99136.62;1732332;82;21085;-76
2022/01/10 04:09:21;;;;;;;23.73;15.70;;;;;;;-0.42;99.74;99142.83;1732167;82;21141;-77
2022/01/10 04:11:48;;;;;;;22.50;15.97;;;;;;;-0.42;99.73;99143.64;1732216;82;20958;-77
2022/01/10 04:14:17;;;;;;;21.37;13.50;;;;;;;-0.41;99.70;99145.78;1732903;81;20954;-76
2022/01/10 04:16:43;;;;;;;28.53;17.67;;;;;;;-0.40;99.75;99149.56;1807462;78;21105;-73
2022/01/10 04:19:09;;;;;;;27.23;17.03;;;;;;;-0.41;99.69;99147.92;1807702;78;21012;-75
2022/01/10 04:21:36;;;;;;;29.43;16.93;;;;;;;-0.41;99.66;99149.75;1807513;79;21111;-77
2022/01/10 04:24:04;;;;;;;23.37;16.00;;;;;;;-0.42;99.67;99147.61;1794483;78;21094;-75
2022/01/10 04:26:32;;;;;;;27.80;17.43;;;;;;;-0.44;99.65;99148.32;1796059;78;20936;-75
2022/01/10 04:28:59;;;;;;;29.97;19.07;;;;;;;-0.45;99.82;99147.50;1807775;79;21019;-75
2022/01/10 04:31:26;;;;;;;28.27;18.17;;;;;;;-0.42;99.90;99150.75;1784646;79;21056;-74
2022/01/10 04:33:52;;;;;;;21.53;13.87;;;;;;;-0.42;99.94;99156.03;1814701;78;21095;-72
2022/01/10 04:36:18;;;;;;;28.13;17.10;;;;;;;-0.39;100.00;99159.62;1840435;78;20967;-76
2022/01/10 04:38:45;;;;;;;23.87;15.73;;;;;;;-0.39;99.93;99169.70;1832593;77;21595;-72
2022/01/10 04:41:13;;;;;;;27.37;18.43;;;;;;;-0.38;99.97;99171.30;1807209;79;21075;-70
2022/01/10 04:43:39;;;;;;;25.80;17.50;;;;;;;-0.35;100.00;99172.77;1762282;78;21095;-70
2022/01/10 04:46:06;;;;;;;26.63;17.30;;;;;;;-0.29;100.00;99179.42;1779793;80;21159;-69
2022/01/10 04:48:33;;;;;;;25.60;18.60;;;;;;;-0.26;100.00;99179.53;1795511;80;21034;-71
2022/01/10 04:53:29;;;;;;;24.80;16.27;;;;;;;-0.26;99.80;99189.59;1794791;80;21135;-71
2022/01/10 04:55:56;;;;;;;20.33;13.43;;;;;;;-0.27;99.74;99194.56;1749049;81;21531;-71
2022/01/10 04:58:22;;;;;;;25.43;16.13;;;;;;;-0.25;99.80;99187.27;1775764;80;21365;-71
2022/01/10 05:00:55;;;;;;;26.40;16.43;;;;;;;-0.23;99.73;99195.80;1795439;79;20946;-71
2022/01/10 05:03:22;;;;;;;29.70;16.37;;;;;;;-0.24;99.53;99198.13;1779146;80;21045;-71
2022/01/10 05:05:53;;;;;;;25.10;17.00;;;;;;;-0.26;99.46;99205.45;1779752;79;21499;-71
2022/01/10 05:08:18;;;;;;;22.73;15.27;;;;;;;-0.28;99.39;99208.77;1844961;77;21532;-70
2022/01/10 05:10:44;;;;;;;23.80;14.10;;;;;;;-0.28;99.42;99211.41;1819504;77;21091;-72
2022/01/10 05:13:11;;;;;;;25.60;15.33;;;;;;;-0.27;99.48;99210.91;1845036;77;20956;-70
2022/01/10 05:15:37;;;;;;;31.27;15.47;;;;;;;-0.29;99.37;99226.98;1817442;77;21507;-71
2022/01/10 05:18:03;;;;;;;25.97;16.73;;;;;;;-0.34;99.20;99227.23;1811977;79;21555;-70
2022/01/10 05:20:30;;;;;;;22.10;14.47;;;;;;;-0.35;99.26;99225.59;1812043;79;21551;-71
2022/01/10 05:22:56;;;;;;;25.27;17.20;;;;;;;-0.37;99.29;99232.88;1761213;79;21079;-71
2022/01/10 05:25:23;;;;;;;31.80;18.20;;;;;;;-0.38;99.34;99232.06;1837413;77;20952;-73
2022/01/10 05:27:49;;;;;;;31.83;18.23;;;;;;;-0.39;99.37;99241.02;1845589;77;20956;-74
2022/01/10 05:30:15;;;;;;;27.63;18.53;;;;;;;-0.39;99.38;99243.66;1834924;77;21012;-75
2022/01/10 05:32:42;;;;;;;25.97;17.60;;;;;;;-0.39;99.37;99241.02;1812464;79;21039;-75
2022/01/10 05:35:11;;;;;;;32.60;18.27;;;;;;;-0.39;99.40;99240.20;1805666;78;21035;-76
2022/01/10 05:37:38;;;;;;;29.83;19.23;;;;;;;-0.40;99.42;99242.52;1840616;77;20938;-76
2022/01/10 05:40:07;;;;;;;24.97;16.23;;;;;;;-0.39;99.57;99250.77;1840461;77;21512;-76
2022/01/10 05:42:34;;;;;;;27.10;19.30;;;;;;;-0.40;99.48;99252.58;1795629;79;21152;-75
2022/01/10 05:45:02;;;;;;;26.27;15.20;;;;;;;-0.41;99.43;99257.55;1802523;79;21479;-75
2022/01/10 05:47:34;;;;;;;28.50;17.20;;;;;;;-0.42;99.50;99270.94;1834217;77;21341;-73
2022/01/10 05:50:03;;;;;;;22.77;14.73;;;;;;;-0.43;99.50;99268.80;1812915;78;20967;-73
2022/01/10 05:52:32;;;;;;;23.37;15.13;;;;;;;-0.43;99.59;99267.47;1812556;79;20869;-74
2022/01/10 05:54:59;;;;;;;23.47;16.27;;;;;;;-0.47;99.53;99271.00;1804621;77;20901;-73
2022/01/10 05:57:26;;;;;;;25.70;16.33;;;;;;;-0.46;99.55;99269.19;1827199;77;21019;-73
2022/01/10 05:59:53;;;;;;;31.43;20.00;;;;;;;-0.47;99.62;99268.86;1812280;79;21085;-74
2022/01/10 06:02:19;;;;;;;31.33;17.03;;;;;;;-0.43;99.77;99277.25;1787093;79;20922;-72
2022/01/10 06:04:46;;;;;;;28.53;18.17;;;;;;;-0.38;99.87;99284.11;1826856;77;20984;-74
2022/01/10 06:07:15;;;;;;;28.37;17.73;;;;;;;-0.34;99.87;99282.21;1828454;77;21047;-73
2022/01/10 06:09:41;;;;;;;25.03;14.90;;;;;;;-0.29;99.79;99294.86;1819790;77;21008;-73
2022/01/10 06:12:09;;;;;;;20.47;14.53;;;;;;;-0.29;99.66;99298.31;1818279;77;22132;-74
2022/01/10 06:14:36;;;;;;;22.53;14.97;;;;;;;-0.30;99.47;99305.09;1812319;79;20972;-73
2022/01/10 06:17:02;;;;;;;25.90;16.37;;;;;;;-0.32;99.39;99305.28;1812721;79;21031;-72
2022/01/10 06:19:30;;;;;;;18.97;13.77;;;;;;;-0.32;99.38;99315.03;1761567;79;21523;-74
2022/01/10 06:21:56;;;;;;;29.70;18.43;;;;;;;-0.30;99.42;99313.02;1835110;77;20977;-74
2022/01/10 06:24:23;;;;;;;25.27;15.77;;;;;;;-0.30;99.34;99311.20;1843873;77;22268;-72
2022/01/10 06:26:49;;;;;;;28.33;17.97;;;;;;;-0.27;99.26;99321.88;1812654;79;20959;-73
2022/01/10 06:29:17;;;;;;;24.23;15.90;;;;;;;-0.30;99.06;99318.31;1829675;77;20996;-73
2022/01/10 06:31:43;;;;;;;22.37;15.93;;;;;;;-0.31;98.99;99324.59;1822193;77;21530;-77
2022/01/10 06:34:11;;;;;;;26.63;17.30;;;;;;;-0.29;99.13;99320.77;1787036;79;22279;-73
2022/01/10 06:36:39;;;;;;;21.87;14.70;;;;;;;-0.25;99.07;99327.81;1761538;79;21039;-74
2022/01/10 06:39:07;;;;;;;26.13;16.53;;;;;;;-0.25;98.91;99329.13;1814381;77;20917;-74
2022/01/10 06:41:35;;;;;;;24.30;15.27;;;;;;;-0.28;98.59;99329.48;1812253;79;21119;-74
2022/01/10 06:44:02;;;;;;;24.13;15.77;;;;;;;-0.27;98.61;99327.17;1812103;79;21555;-74
2022/01/10 06:46:29;;;;;;;25.23;16.80;;;;;;;-0.25;98.59;99338.37;1787383;79;20996;-74
2022/01/10 06:48:55;;;;;;;23.90;15.13;;;;;;;-0.22;98.54;99337.99;1800481;77;22131;-77
2022/01/10 06:51:22;;;;;;;24.90;16.50;;;;;;;-0.19;98.42;99345.03;1845671;77;20905;-81
2022/01/10 06:53:49;;;;;;;26.13;14.83;;;;;;;-0.17;98.30;99344.84;1819753;77;20944;-76
2022/01/10 06:56:15;;;;;;;28.57;19.10;;;;;;;-0.16;98.21;99347.31;1846068;77;20990;-75
2022/01/10 06:58:42;;;;;;;27.93;16.90;;;;;;;-0.12;98.16;99353.84;1811658;77;21496;-77
2022/01/10 07:01:10;;;;;;;27.63;18.33;;;;;;;-0.07;98.11;99359.39;1810058;78;21400;-77
2022/01/10 07:03:36;;;;;;;26.97;16.30;;;;;;;-0.05;97.88;99359.20;1809889;78;21011;-73
2022/01/10 07:06:07;;;;;;;26.70;15.93;;;;;;;-0.05;97.73;99365.28;1809108;79;20971;-74
2022/01/10 07:08:35;;;;;;;27.47;16.67;;;;;;;-0.02;97.65;99365.42;1810567;77;21040;-74
2022/01/10 07:11:02;;;;;;;21.40;15.33;;;;;;;0.00;97.45;99362.89;1787806;78;21070;-73
2022/01/10 07:13:30;;;;;;;27.10;16.97;;;;;;;-0.02;97.10;99368.06;1809906;79;21151;-78
2022/01/10 07:15:58;;;;;;;28.53;17.90;;;;;;;-0.06;96.92;99368.95;1787841;79;21461;-76
2022/01/10 07:18:25;;;;;;;23.43;16.60;;;;;;;-0.07;96.85;99373.10;1836600;77;20909;-74
2022/01/10 07:20:53;;;;;;;17.93;12.53;;;;;;;-0.10;96.64;99378.28;1786204;79;22199;-75
2022/01/10 07:23:20;;;;;;;26.40;17.27;;;;;;;-0.10;96.62;99377.45;1762695;79;20971;-74
2022/01/10 07:25:46;;;;;;;25.90;17.07;;;;;;;-0.11;96.57;99374.49;1783109;80;22081;-73
2022/01/10 07:28:12;;;;;;;24.57;16.77;;;;;;;-0.07;96.68;99378.39;1805769;79;21577;-76
2022/01/10 07:30:39;;;;;;;25.57;17.23;;;;;;;-0.06;96.53;99372.92;1793946;80;21646;-77
2022/01/10 07:33:05;;;;;;;23.13;16.87;;;;;;;-0.05;96.31;99380.34;1793901;80;21066;-74
2022/01/10 07:35:32;;;;;;;24.70;16.03;;;;;;;-0.05;96.23;99382.99;1742170;80;21093;-74
2022/01/10 07:37:59;;;;;;;20.27;14.90;;;;;;;-0.04;96.18;99382.78;1775887;80;21770;-76
2022/01/10 07:40:25;;;;;;;23.33;16.17;;;;;;;-0.01;96.17;99387.71;1762292;81;21546;-76
2022/01/10 07:42:51;;;;;;;23.20;15.47;;;;;;;-0.02;95.83;99387.89;1762454;81;21614;-76
2022/01/10 07:45:22;;;;;;;25.73;15.87;;;;;;;-0.06;95.68;99391.92;1726175;82;21027;-80
2022/01/10 07:47:48;;;;;;;25.30;16.50;;;;;;;-0.10;95.52;99399.92;1760811;81;21121;-77
2022/01/10 07:50:15;;;;;;;27.30;16.10;;;;;;;-0.13;95.54;99391.03;1809878;79;21052;-78
2022/01/10 07:52:42;;;;;;;22.50;16.50;;;;;;;-0.13;95.58;99394.99;1809888;79;20951;-77
2022/01/10 07:55:09;;;;;;;21.00;15.27;;;;;;;-0.14;95.49;99402.59;1810064;78;21294;-77
2022/01/10 07:57:36;;;;;;;19.73;15.40;;;;;;;-0.15;95.41;99395.70;1811115;77;21324;-77
2022/01/10 08:00:05;;;;;;;21.43;15.93;;;;;;;-0.16;95.37;99407.27;1810326;78;21000;-76
2022/01/10 08:02:34;;;;;;;21.30;15.00;;;;;;;-0.16;95.32;99405.45;1786358;79;21089;-78
2022/01/10 08:05:02;;;;;;;27.67;18.27;;;;;;;-0.18;95.21;99414.05;1809874;78;20881;-77
2022/01/10 08:07:28;;;;;;;26.37;15.43;;;;;;;-0.20;95.01;99413.95;1796652;77;21012;-75
2022/01/10 08:09:55;;;;;;;25.07;17.10;;;;;;;-0.23;95.07;99411.66;1815040;79;21010;-75
2022/01/10 08:12:21;;;;;;;19.03;14.90;;;;;;;-0.22;95.17;99427.83;1766999;80;21054;-75
2022/01/10 08:14:48;;;;;;;23.33;15.57;;;;;;;-0.20;95.21;99425.83;1741839;80;21056;-74
2022/01/10 08:17:15;;;;;;;16.77;13.47;;;;;;;-0.23;94.94;99433.62;1761397;81;21056;-74
2022/01/10 08:19:41;;;;;;;26.23;14.43;;;;;;;-0.27;94.81;99430.22;1736523;81;21030;-75
2022/01/10 08:22:07;;;;;;;22.33;16.27;;;;;;;-0.33;94.72;99426.98;1762821;81;21034;-75
2022/01/10 08:24:34;;;;;;;19.53;13.90;;;;;;;-0.35;94.78;99433.80;1762485;81;21050;-77
2022/01/10 08:27:01;;;;;;;18.77;12.93;;;;;;;-0.33;94.88;99440.20;1763336;80;22089;-76
2022/01/10 08:29:29;;;;;;;23.97;14.53;;;;;;;-0.32;94.87;99447.13;1750476;82;21046;-75
2022/01/10 08:31:56;;;;;;;19.90;15.50;;;;;;;-0.35;94.83;99445.69;1783239;79;21022;-74
2022/01/10 08:34:24;;;;;;;23.60;14.50;;;;;;;-0.36;94.82;99450.65;1762494;81;21045;-76
2022/01/10 08:36:52;;;;;;;18.67;14.17;;;;;;;-0.35;94.91;99456.75;1750814;82;21637;-75
2022/01/10 08:39:18;;;;;;;25.40;17.03;;;;;;;-0.32;94.97;99455.05;1782950;80;21713;-74
2022/01/10 08:41:45;;;;;;;19.50;12.73;;;;;;;-0.30;94.94;99455.70;1762886;80;21101;-76
2022/01/10 08:44:14;;;;;;;31.33;18.40;;;;;;;-0.27;94.86;99457.46;1762475;81;21608;-75
2022/01/10 08:46:40;;;;;;;20.70;15.23;;;;;;;-0.28;94.66;99469.03;1751815;81;21015;-72
2022/01/10 08:49:06;;;;;;;23.43;14.97;;;;;;;-0.26;94.68;99456.96;1770896;80;21085;-75
2022/01/10 08:51:34;;;;;;;22.23;14.33;;;;;;;-0.29;94.33;99462.13;1736358;81;21073;-74
2022/01/10 08:54:02;;;;;;;26.30;15.03;;;;;;;-0.31;94.14;99465.94;1736305;81;21046;-71
2022/01/10 08:56:28;;;;;;;22.87;14.37;;;;;;;-0.33;94.07;99466.12;1791132;77;20959;-71
2022/01/10 08:58:54;;;;;;;18.27;11.60;;;;;;;-0.32;94.11;99470.91;1811052;78;21566;-71
2022/01/10 09:01:21;;;;;;;17.87;12.33;;;;;;;-0.30;94.05;99472.88;1840550;77;21003;-75
2022/01/10 09:03:48;;;;;;;21.23;14.83;;;;;;;-0.31;93.74;99474.69;1845437;77;21764;-75
2022/01/10 09:06:15;;;;;;;19.37;14.37;;;;;;;-0.30;93.48;99470.23;1845449;77;21548;-74
2022/01/10 09:08:43;;;;;;;28.90;18.13;;;;;;;-0.29;93.42;99462.63;1828613;77;21015;-78
2022/01/10 09:11:11;;;;;;;18.27;11.90;;;;;;;-0.26;93.33;99479.42;1788070;79;21069;-76
2022/01/10 09:13:38;;;;;;;19.90;13.57;;;;;;;-0.26;93.11;99470.17;1812408;79;21068;-76
2022/01/10 09:16:06;;;;;;;21.33;14.17;;;;;;;-0.29;92.92;99471.88;1830107;78;56499;-80
2022/01/10 09:18:35;;;;;;;18.20;12.20;;;;;;;-0.31;92.82;99472.05;1839757;77;21548;-77
2022/01/10 09:21:03;;;;;;;22.03;13.50;;;;;;;-0.37;92.46;99482.53;1831655;77;20979;-76
2022/01/10 09:23:29;;;;;;;21.07;13.27;;;;;;;-0.43;92.27;99482.76;1798411;78;21055;-75
2022/01/10 09:25:56;;;;;;;17.43;12.73;;;;;;;-0.45;92.40;99475.53;1826374;78;21082;-76
2022/01/10 09:28:22;;;;;;;16.43;12.40;;;;;;;-0.43;92.46;99468.23;1809213;77;21070;-78
2022/01/10 09:30:49;;;;;;;15.53;10.23;;;;;;;-0.47;92.13;99488.92;1831585;77;20991;-79
2022/01/10 09:33:15;;;;;;;20.33;12.40;;;;;;;-0.57;91.56;99490.20;1826093;78;21653;-75
2022/01/10 09:35:44;;;;;;;18.07;13.70;;;;;;;-0.65;91.29;99507.46;1798338;78;21288;-79
2022/01/10 09:38:10;;;;;;;14.00;11.03;;;;;;;-0.67;91.44;99490.47;1846581;77;20895;-76
2022/01/10 09:40:38;;;;;;;17.53;12.83;;;;;;;-0.65;91.55;99497.72;1819375;78;21514;-78
2022/01/10 09:43:05;;;;;;;16.20;10.63;;;;;;;-0.61;91.66;99497.67;1768820;79;20978;-79
2022/01/10 09:45:31;;;;;;;19.87;12.83;;;;;;;-0.63;91.20;99504.16;1770838;79;21015;-75
2022/01/10 09:48:00;;;;;;;14.63;10.70;;;;;;;-0.66;91.20;99503.17;1741676;81;21018;-75
2022/01/10 09:50:26;;;;;;;19.80;13.27;;;;;;;-0.76;90.72;99501.30;1782472;78;21033;-76
2022/01/10 09:52:52;;;;;;;14.00;11.33;;;;;;;-0.76;91.02;99506.09;1801659;79;21251;-74
2022/01/10 09:55:19;;;;;;;18.67;12.43;;;;;;;-0.75;90.82;99513.02;1795030;79;21324;-75
2022/01/10 09:57:46;;;;;;;14.80;11.23;;;;;;;-0.76;90.82;99506.59;1757267;80;21000;-75
2022/01/10 10:00:15;;;;;;;14.83;9.37;;;;;;;-0.78;90.74;99509.92;1785976;80;21103;-76
2022/01/10 10:02:43;;;;;;;13.63;10.40;;;;;;;-0.77;90.71;99524.28;1759445;80;20998;-78
2022/01/10 10:05:11;;;;;;;15.77;12.10;;;;;;;-0.83;90.24;99520.21;1758717;80;21499;-76
2022/01/10 10:07:40;;;;;;;14.33;10.47;;;;;;;-0.86;90.33;99519.27;1787147;80;20924;-76
2022/01/10 10:10:12;;;;;;;16.07;11.23;;;;;;;-0.83;90.47;99516.25;1787366;80;20939;-76
2022/01/10 10:12:39;;;;;;;19.07;12.83;;;;;;;-0.83;90.38;99515.75;1733266;80;21051;-77
2022/01/10 10:15:08;;;;;;;15.17;11.97;;;;;;;-0.82;90.45;99524.00;1787545;78;21570;-77
2022/01/10 10:17:36;;;;;;;17.67;13.77;;;;;;;-0.80;90.51;99526.44;1757931;80;21972;-77
2022/01/10 10:20:14;;;;;;;14.93;10.67;;;;;;;-0.84;90.30;99535.72;1784645;78;21077;-74
2022/01/10 10:22:42;;;;;;;16.27;11.30;;;;;;;-1.00;89.62;99538.84;1791899;78;21088;-81
2022/01/10 10:25:09;;;;;;;18.30;11.87;;;;;;;-1.02;89.84;99535.58;1817172;78;20986;-80
2022/01/10 10:27:38;;;;;;;14.23;11.17;;;;;;;-1.01;89.93;99534.55;1766429;80;21098;-79
2022/01/10 10:30:10;;;;;;;16.07;11.00;;;;;;;-0.98;90.05;99538.17;1769882;81;22008;-78
2022/01/10 10:32:36;;;;;;;24.40;15.47;;;;;;;-0.95;90.08;99541.76;1753939;81;21013;-73
2022/01/10 10:35:06;;;;;;;13.90;10.80;;;;;;;-0.94;89.97;99544.72;1741733;81;21058;-74
2022/01/10 10:37:37;;;;;;;18.57;12.10;;;;;;;-0.95;89.43;99532.52;1762395;80;21069;-77
2022/01/10 10:40:07;;;;;;;15.67;12.00;;;;;;;-0.98;89.33;99535.53;1800739;79;21017;-76
2022/01/10 10:42:34;;;;;;;16.00;10.97;;;;;;;-0.96;89.54;99539.31;1751168;81;21106;-75
2022/01/10 10:45:04;;;;;;;17.73;12.23;;;;;;;-0.97;89.66;99551.69;1769629;79;21034;-76
2022/01/10 10:47:35;;;;;;;14.03;11.17;;;;;;;-0.96;89.60;99542.75;1757511;80;21021;-78
2022/01/10 10:50:02;;;;;;;16.73;12.57;;;;;;;-1.00;89.47;99556.48;1785300;80;21041;-78
2022/01/10 10:52:35;;;;;;;17.07;11.10;;;;;;;-1.03;89.57;99546.30;1807213;78;21041;-78
2022/01/10 10:55:10;;;;;;;13.72;9.95;;;;;;;-1.02;89.70;99551.41;1794382;79;21468;-73
2022/01/10 10:57:37;;;;;;;17.60;12.40;;;;;;;-1.05;89.73;99553.06;1768250;81;21000;-79
2022/01/10 11:00:07;;;;;;;19.10;11.30;;;;;;;-1.06;89.88;99556.73;1785587;80;20955;-86
2022/01/10 11:02:33;;;;;;;19.83;11.93;;;;;;;-1.14;89.92;99555.45;1758290;80;21041;-80
2022/01/10 11:05:03;;;;;;;21.97;14.27;;;;;;;-1.15;90.09;99570.17;1787373;80;21022;-75
2022/01/10 11:07:31;;;;;;;18.97;13.80;;;;;;;-1.16;90.25;99569.34;1757236;80;21104;-84
2022/01/10 11:09:58;;;;;;;13.83;9.47;;;;;;;-1.15;90.37;99571.48;1773144;80;20988;-82
2022/01/10 11:12:24;;;;;;;27.03;17.80;;;;;;;-1.20;90.36;99587.03;1758081;80;21102;-80
2022/01/10 11:14:52;;;;;;;20.60;14.33;;;;;;;-1.33;90.34;99571.77;1786823;80;21091;-80
2022/01/10 11:17:20;;;;;;;21.40;14.77;;;;;;;-1.40;90.67;99578.77;1787115;80;21527;-76
2022/01/10 11:20:11;;;;;;;19.27;13.47;;;;;;;-1.53;90.89;99584.59;1787494;80;22197;-78
2022/01/10 11:22:44;;;;;;;22.87;15.07;;;;;;;-1.64;91.30;99586.83;1807743;78;21603;-86
2022/01/10 11:25:34;;;;;;;18.70;11.97;;;;;;;-1.65;91.49;99586.01;1756598;80;20954;-80
2022/01/10 11:28:23;;;;;;;15.50;10.20;;;;;;;-1.56;91.76;99615.77;1787425;79;21483;-77
2022/01/10 11:31:02;;;;;;;15.53;10.60;;;;;;;-1.53;91.73;99607.02;1786962;80;21111;-75
2022/01/10 11:33:32;;;;;;;17.97;11.53;;;;;;;-1.58;91.57;99601.97;1757664;80;21103;-74